createdAt,value
2017-11-10T00:00:04.540Z,100.00
2017-11-10T00:02:32.030Z,100.00
2017-11-10T00:04:59.538Z,100.00
2017-11-10T00:07:27.065Z,100.00
2017-11-10T00:09:54.805Z,100.00
2017-11-10T00:12:22.332Z,100.00
2017-11-10T00:14:52.138Z,100.00
2017-11-10T00:17:24.233Z,99.82
2017-11-10T00:19:51.728Z,99.42
2017-11-10T00:22:19.246Z,98.55
2017-11-10T00:24:46.849Z,98.80
2017-11-10T00:27:14.355Z,98.85
2017-11-10T00:29:41.863Z,99.30
2017-11-10T00:32:09.418Z,99.60
2017-11-10T00:34:36.924Z,100.00
2017-11-10T00:37:04.445Z,100.00
2017-11-10T00:39:31.955Z,100.00
2017-11-10T00:41:59.479Z,100.00
2017-11-10T00:44:26.982Z,100.00
2017-11-10T00:46:54.484Z,100.00
2017-11-10T00:49:21.993Z,100.00
2017-11-10T00:51:49.509Z,100.00
2017-11-10T00:54:17.048Z,100.00
2017-11-10T00:56:44.542Z,100.00
2017-11-10T00:59:12.047Z,100.00
2017-11-10T01:01:40.471Z,100.00
2017-11-10T01:04:07.998Z,100.00
2017-11-10T01:06:35.490Z,99.82
2017-11-10T01:09:03.003Z,98.98
2017-11-10T01:11:30.495Z,99.29
2017-11-10T01:13:57.994Z,100.00
2017-11-10T01:16:25.513Z,100.00
2017-11-10T01:18:53.008Z,100.00
2017-11-10T01:21:20.540Z,100.00
2017-11-10T01:23:48.055Z,100.00
2017-11-10T01:26:15.547Z,99.87
2017-11-10T01:28:43.042Z,99.71
2017-11-10T01:31:10.546Z,99.58
2017-11-10T01:33:38.038Z,99.31
2017-11-10T01:36:05.526Z,98.36
2017-11-10T01:38:33.025Z,96.39
2017-11-10T01:41:00.540Z,95.73
2017-11-10T01:43:28.043Z,96.84
2017-11-10T01:45:55.540Z,97.23
2017-11-10T01:48:23.052Z,96.80
2017-11-10T01:50:50.552Z,97.38
2017-11-10T01:53:18.062Z,97.60
2017-11-10T01:55:45.584Z,97.10
2017-11-10T01:58:13.384Z,96.86
2017-11-10T02:00:40.890Z,96.95
2017-11-10T02:03:08.416Z,97.52
2017-11-10T02:05:35.945Z,97.96
2017-11-10T02:08:03.449Z,98.22
2017-11-10T02:10:30.972Z,98.69
2017-11-10T02:12:58.470Z,99.05
2017-11-10T02:15:26.005Z,98.46
2017-11-10T02:17:53.498Z,98.07
2017-11-10T02:20:21.027Z,97.92
2017-11-10T02:22:48.523Z,98.23
2017-11-10T02:25:16.037Z,99.14
2017-11-10T02:27:43.596Z,99.53
2017-11-10T02:30:11.110Z,99.72
2017-11-10T02:32:38.659Z,100.00
2017-11-10T02:35:06.203Z,100.00
2017-11-10T02:37:33.720Z,100.00
2017-11-10T02:40:01.262Z,100.00
2017-11-10T02:42:28.786Z,100.00
2017-11-10T02:44:56.286Z,100.00
2017-11-10T02:47:23.790Z,100.00
2017-11-10T02:49:51.297Z,100.00
2017-11-10T02:52:18.801Z,100.00
2017-11-10T02:54:46.324Z,100.00
2017-11-10T02:57:13.862Z,100.00
2017-11-10T02:59:41.366Z,100.00
2017-11-10T03:02:08.899Z,100.00
2017-11-10T03:04:36.399Z,100.00
2017-11-10T03:07:03.920Z,100.00
2017-11-10T03:09:31.433Z,100.00
2017-11-10T03:11:58.943Z,100.00
2017-11-10T03:14:26.441Z,100.00
2017-11-10T03:16:54.020Z,100.00
2017-11-10T03:19:21.536Z,100.00
2017-11-10T03:21:49.051Z,100.00
2017-11-10T03:24:16.579Z,100.00
2017-11-10T03:26:44.542Z,100.00
2017-11-10T03:29:12.044Z,100.00
2017-11-10T03:31:39.545Z,100.00
2017-11-10T03:34:07.081Z,100.00
2017-11-10T03:36:34.588Z,100.00
2017-11-10T03:39:02.088Z,100.00
2017-11-10T03:41:29.593Z,100.00
2017-11-10T03:43:57.117Z,100.00
2017-11-10T03:46:24.627Z,100.00
2017-11-10T03:48:52.140Z,100.00
2017-11-10T03:51:19.639Z,100.00
2017-11-10T03:53:47.135Z,100.00
2017-11-10T03:56:14.652Z,100.00
2017-11-10T03:58:42.155Z,100.00
2017-11-10T04:01:09.671Z,100.00
2017-11-10T04:03:37.191Z,100.00
2017-11-10T04:06:04.720Z,100.00
2017-11-10T04:08:32.251Z,100.00
2017-11-10T04:10:59.754Z,100.00
2017-11-10T04:13:27.260Z,99.94
2017-11-10T04:15:54.760Z,99.83
2017-11-10T04:18:22.270Z,100.00
2017-11-10T04:20:49.802Z,99.70
2017-11-10T04:23:17.312Z,99.31
2017-11-10T04:25:44.812Z,99.61
2017-11-10T04:28:12.323Z,99.62
2017-11-10T04:30:39.831Z,99.26
2017-11-10T04:33:07.350Z,97.96
2017-11-10T04:35:34.864Z,96.81
2017-11-10T04:38:02.384Z,96.61
2017-11-10T04:40:29.891Z,95.86
2017-11-10T04:42:57.408Z,95.77
2017-11-10T04:45:24.918Z,95.94
2017-11-10T04:47:52.426Z,95.84
2017-11-10T04:50:19.928Z,95.71
2017-11-10T04:52:47.436Z,95.85
2017-11-10T04:55:14.951Z,95.45
2017-11-10T04:57:42.483Z,96.07
2017-11-10T05:00:09.993Z,96.89
2017-11-10T05:02:37.507Z,97.61
2017-11-10T05:05:05.008Z,97.76
2017-11-10T05:07:32.508Z,98.09
2017-11-10T05:10:00.045Z,98.51
2017-11-10T05:12:27.610Z,97.98
2017-11-10T05:14:55.094Z,98.79
2017-11-10T05:17:22.598Z,98.65
2017-11-10T05:19:50.101Z,98.18
2017-11-10T05:22:17.609Z,97.57
2017-11-10T05:24:45.139Z,97.15
2017-11-10T05:27:12.667Z,96.20
2017-11-10T05:29:40.166Z,95.54
2017-11-10T05:32:07.670Z,95.82
2017-11-10T05:34:35.169Z,96.17
2017-11-10T05:37:02.680Z,96.52
2017-11-10T05:39:30.184Z,96.76
2017-11-10T05:41:57.707Z,97.28
2017-11-10T05:44:25.226Z,97.71
2017-11-10T05:46:52.745Z,97.82
2017-11-10T05:49:20.251Z,98.12
2017-11-10T05:51:47.752Z,98.21
2017-11-10T05:54:15.268Z,98.65
2017-11-10T05:56:42.799Z,98.83
2017-11-10T05:59:10.327Z,97.65
2017-11-10T06:01:37.976Z,96.79
2017-11-10T06:04:05.498Z,96.29
2017-11-10T06:06:33.024Z,96.09
2017-11-10T06:09:00.549Z,95.74
2017-11-10T06:11:28.081Z,95.86
2017-11-10T06:13:55.595Z,95.28
2017-11-10T06:16:23.131Z,95.85
2017-11-10T06:18:50.651Z,95.76
2017-11-10T06:21:18.161Z,95.08
2017-11-10T06:23:45.667Z,93.47
2017-11-10T06:26:13.179Z,93.67
2017-11-10T06:28:40.677Z,92.68
2017-11-10T06:31:08.194Z,91.88
2017-11-10T06:33:35.723Z,92.27
2017-11-10T06:36:03.225Z,92.12
2017-11-10T06:38:30.727Z,92.25
2017-11-10T06:40:58.255Z,92.04
2017-11-10T06:43:25.758Z,91.66
2017-11-10T06:45:53.275Z,92.76
2017-11-10T06:48:20.781Z,92.71
2017-11-10T06:50:48.305Z,92.36
2017-11-10T06:53:15.811Z,91.74
2017-11-10T06:55:43.337Z,92.21
2017-11-10T06:58:10.855Z,92.17
2017-11-10T07:00:38.359Z,91.28
2017-11-10T07:03:05.862Z,91.61
2017-11-10T07:05:33.359Z,90.96
2017-11-10T07:08:00.873Z,90.52
2017-11-10T07:10:28.392Z,90.42
2017-11-10T07:12:55.915Z,91.25
2017-11-10T07:15:23.408Z,91.50
2017-11-10T07:17:50.931Z,91.49
2017-11-10T07:20:18.438Z,90.95
2017-11-10T07:22:46.065Z,90.15
2017-11-10T07:25:13.564Z,89.46
2017-11-10T07:27:41.080Z,91.41
2017-11-10T07:30:08.782Z,90.81
2017-11-10T07:32:36.287Z,91.45
2017-11-10T07:35:03.805Z,90.59
2017-11-10T07:37:31.344Z,90.78
2017-11-10T07:39:59.188Z,90.16
2017-11-10T07:42:26.814Z,90.19
2017-11-10T07:44:54.324Z,90.28
2017-11-10T07:47:21.826Z,90.77
2017-11-10T07:49:49.323Z,90.70
2017-11-10T07:52:16.824Z,89.11
2017-11-10T07:54:44.344Z,89.23
2017-11-10T07:57:11.849Z,89.02
2017-11-10T07:59:39.357Z,88.57
2017-11-10T08:02:06.867Z,88.71
2017-11-10T08:04:34.371Z,88.34
2017-11-10T08:07:01.882Z,88.27
2017-11-10T08:09:29.434Z,88.63
2017-11-10T08:11:56.955Z,87.52
2017-11-10T08:14:24.446Z,88.10
2017-11-10T08:16:51.964Z,89.08
2017-11-10T08:19:19.486Z,86.60
2017-11-10T08:21:47.021Z,84.90
2017-11-10T08:24:14.538Z,84.49
2017-11-10T08:26:42.052Z,84.68
2017-11-10T08:29:09.564Z,83.33
2017-11-10T08:31:37.080Z,84.18
2017-11-10T08:34:04.608Z,83.97
2017-11-10T08:36:32.103Z,82.48
2017-11-10T08:38:59.613Z,81.83
2017-11-10T08:41:27.117Z,82.07
2017-11-10T08:43:54.633Z,83.00
2017-11-10T08:46:22.167Z,81.08
2017-11-10T08:48:49.745Z,81.21
2017-11-10T08:51:17.235Z,80.54
2017-11-10T08:53:44.767Z,80.17
2017-11-10T08:56:12.262Z,80.58
2017-11-10T08:58:39.779Z,80.36
2017-11-10T09:01:07.271Z,79.61
2017-11-10T09:03:34.789Z,79.16
2017-11-10T09:06:02.307Z,79.78
2017-11-10T09:08:29.876Z,79.82
2017-11-10T09:10:57.395Z,80.12
2017-11-10T09:13:24.895Z,79.58
2017-11-10T09:15:52.389Z,79.61
2017-11-10T09:18:19.910Z,79.41
2017-11-10T09:20:47.424Z,79.24
2017-11-10T09:23:14.916Z,79.07
2017-11-10T09:25:42.414Z,78.96
2017-11-10T09:28:10.338Z,78.80
2017-11-10T09:30:43.370Z,79.83
2017-11-10T09:33:18.434Z,79.83
2017-11-10T09:35:52.373Z,79.84
2017-11-10T09:38:24.446Z,80.89
2017-11-10T09:40:51.954Z,80.88
2017-11-10T09:43:20.954Z,81.30
2017-11-10T09:46:03.333Z,81.36
2017-11-10T09:48:36.585Z,80.76
2017-11-10T09:51:09.633Z,80.94
2017-11-10T09:53:42.708Z,80.58
2017-11-10T09:56:15.786Z,82.27
2017-11-10T10:02:06.464Z,80.48
2017-11-10T10:04:48.813Z,80.80
2017-11-10T10:10:29.134Z,81.21
2017-11-10T10:13:12.334Z,80.56
2017-11-10T10:15:49.418Z,81.05
2017-11-10T10:18:22.611Z,79.23
2017-11-10T10:21:10.854Z,81.50
2017-11-10T10:23:38.357Z,79.90
2017-11-10T10:26:05.862Z,80.68
2017-11-10T10:28:33.391Z,79.79
2017-11-10T10:31:00.884Z,79.12
2017-11-10T10:33:28.400Z,80.08
2017-11-10T10:35:55.938Z,79.42
2017-11-10T10:38:23.456Z,79.55
2017-11-10T10:40:50.999Z,79.70
2017-11-10T10:43:18.519Z,78.66
2017-11-10T10:45:46.019Z,78.39
2017-11-10T10:48:13.503Z,78.36
2017-11-10T10:50:40.993Z,77.22
2017-11-10T10:53:08.586Z,79.23
2017-11-10T10:55:36.187Z,79.72
2017-11-10T10:58:03.670Z,79.93
2017-11-10T11:00:31.173Z,81.74
2017-11-10T11:02:58.670Z,82.20
2017-11-10T11:05:26.163Z,83.53
2017-11-10T11:07:53.663Z,82.60
2017-11-10T11:10:21.187Z,84.53
2017-11-10T11:12:48.697Z,83.69
2017-11-10T11:15:16.216Z,83.89
2017-11-10T11:17:43.728Z,83.90
2017-11-10T11:20:11.259Z,85.37
2017-11-10T11:22:38.758Z,85.04
2017-11-10T11:25:06.250Z,87.29
2017-11-10T11:27:33.764Z,86.72
2017-11-10T11:30:01.350Z,86.35
2017-11-10T11:32:28.899Z,87.22
2017-11-10T11:34:56.433Z,87.06
2017-11-10T11:37:23.940Z,88.66
2017-11-10T11:39:51.468Z,89.60
2017-11-10T11:42:18.989Z,89.20
2017-11-10T11:44:46.492Z,91.32
2017-11-10T11:47:14.006Z,88.50
2017-11-10T11:49:41.518Z,89.15
2017-11-10T11:52:09.020Z,90.64
2017-11-10T11:54:36.564Z,89.96
2017-11-10T11:57:04.068Z,89.42
2017-11-10T11:59:31.563Z,90.18
2017-11-10T12:01:59.106Z,89.82
2017-11-10T12:04:26.599Z,89.75
2017-11-10T12:06:54.095Z,90.66
2017-11-10T12:09:21.596Z,90.02
2017-11-10T12:11:49.092Z,89.95
2017-11-10T12:14:16.598Z,90.36
2017-11-10T12:16:44.095Z,90.83
2017-11-10T12:19:11.582Z,91.06
2017-11-10T12:21:39.168Z,89.73
2017-11-10T12:24:06.678Z,90.88
2017-11-10T12:26:34.193Z,90.70
2017-11-10T12:29:01.716Z,89.81
2017-11-10T12:31:29.297Z,90.85
2017-11-10T12:33:56.819Z,90.32
2017-11-10T12:36:24.339Z,90.03
2017-11-10T12:38:52.818Z,89.82
2017-11-10T12:41:20.334Z,90.35
2017-11-10T12:43:47.833Z,90.63
2017-11-10T12:46:15.363Z,90.83
2017-11-10T12:48:42.908Z,92.20
2017-11-10T12:51:11.281Z,91.14
2017-11-10T12:53:38.813Z,90.71
2017-11-10T12:56:06.314Z,89.37
2017-11-10T12:58:33.825Z,90.86
2017-11-10T13:01:01.333Z,90.02
2017-11-10T13:03:28.838Z,91.83
2017-11-10T13:05:56.370Z,89.99
2017-11-10T13:08:23.891Z,89.43
2017-11-10T13:10:51.399Z,90.78
2017-11-10T13:13:18.908Z,89.95
2017-11-10T13:15:46.435Z,90.29
2017-11-10T13:18:13.961Z,89.82
2017-11-10T13:20:41.480Z,90.37
2017-11-10T13:23:08.993Z,90.85
2017-11-10T13:25:36.497Z,91.02
2017-11-10T13:28:04.018Z,89.77
2017-11-10T13:30:31.547Z,90.68
2017-11-10T13:32:59.052Z,89.82
2017-11-10T13:35:26.559Z,90.69
2017-11-10T13:37:54.079Z,91.37
2017-11-10T13:40:21.610Z,89.80
2017-11-10T13:42:49.136Z,90.54
2017-11-10T13:45:16.650Z,90.56
2017-11-10T13:47:44.223Z,90.92
2017-11-10T13:50:11.719Z,90.46
2017-11-10T13:52:39.540Z,91.45
2017-11-10T13:55:07.053Z,90.48
2017-11-10T13:57:35.740Z,91.82
2017-11-10T14:00:03.262Z,91.31
2017-11-10T14:02:30.778Z,91.84
2017-11-10T14:04:58.294Z,91.75
2017-11-10T14:07:25.795Z,90.73
2017-11-10T14:09:53.315Z,91.57
2017-11-10T14:12:20.844Z,91.92
2017-11-10T14:14:48.349Z,92.49
2017-11-10T14:17:15.910Z,92.02
2017-11-10T14:19:43.442Z,92.03
2017-11-10T14:22:10.939Z,91.03
2017-11-10T14:24:38.461Z,91.70
2017-11-10T14:27:05.990Z,92.99
2017-11-10T14:29:33.529Z,92.13
2017-11-10T14:32:01.039Z,91.57
2017-11-10T14:34:28.545Z,91.86
2017-11-10T14:36:56.084Z,92.23
2017-11-10T14:39:23.607Z,92.47
2017-11-10T14:41:51.118Z,93.08
2017-11-10T14:44:18.675Z,91.73
2017-11-10T14:46:46.200Z,92.60
2017-11-10T14:49:13.715Z,92.02
2017-11-10T14:51:41.220Z,93.09
2017-11-10T14:54:08.736Z,92.65
2017-11-10T14:56:36.255Z,92.61
2017-11-10T14:59:03.759Z,92.37
2017-11-10T15:01:31.271Z,91.79
2017-11-10T15:03:58.763Z,92.54
2017-11-10T15:06:26.276Z,91.39
2017-11-10T15:08:54.161Z,91.07
2017-11-10T15:11:21.791Z,91.97
2017-11-10T15:13:49.301Z,91.62
2017-11-10T15:16:16.828Z,90.79
2017-11-10T15:18:44.366Z,91.63
2017-11-10T15:21:11.858Z,91.60
2017-11-10T15:23:39.419Z,91.32
2017-11-10T15:26:06.938Z,90.53
2017-11-10T15:28:34.443Z,90.15
2017-11-10T15:31:01.956Z,90.49
2017-11-10T15:33:29.491Z,90.94
2017-11-10T15:35:56.992Z,91.30
2017-11-10T15:38:24.530Z,90.80
2017-11-10T15:40:52.027Z,90.20
2017-11-10T15:43:19.601Z,90.59
2017-11-10T15:45:47.164Z,90.21
2017-11-10T15:48:14.662Z,91.25
2017-11-10T15:50:42.159Z,90.93
2017-11-10T15:53:09.654Z,91.16
2017-11-10T15:55:37.138Z,90.65
2017-11-10T15:58:04.639Z,90.99
2017-11-10T16:00:32.160Z,91.14
2017-11-10T16:02:59.668Z,91.28
2017-11-10T16:05:27.205Z,90.30
2017-11-10T16:07:54.707Z,90.42
2017-11-10T16:10:22.235Z,91.92
2017-11-10T16:12:49.752Z,91.71
2017-11-10T16:15:17.243Z,91.40
2017-11-10T16:17:44.779Z,91.67
2017-11-10T16:20:12.274Z,91.57
2017-11-10T16:22:39.796Z,91.67
2017-11-10T16:25:07.296Z,90.54
2017-11-10T16:27:34.818Z,91.43
2017-11-10T16:30:02.323Z,91.42
2017-11-10T16:32:29.817Z,91.33
2017-11-10T16:34:57.322Z,90.48
2017-11-10T16:37:24.816Z,90.23
2017-11-10T16:39:52.319Z,89.43
2017-11-10T16:42:19.835Z,90.02
2017-11-10T16:44:47.340Z,89.94
2017-11-10T16:47:14.863Z,90.05
2017-11-10T16:49:42.367Z,89.97
2017-11-10T16:52:09.863Z,89.41
2017-11-10T16:54:37.397Z,89.39
2017-11-10T16:57:04.891Z,89.16
2017-11-10T16:59:32.382Z,89.35
2017-11-10T17:01:59.886Z,88.42
2017-11-10T17:04:27.398Z,89.17
2017-11-10T17:06:54.896Z,88.58
2017-11-10T17:09:22.407Z,89.24
2017-11-10T17:11:49.937Z,88.70
2017-11-10T17:14:17.454Z,88.87
2017-11-10T17:16:44.970Z,89.16
2017-11-10T17:19:12.501Z,88.85
2017-11-10T17:21:40.019Z,88.66
2017-11-10T17:24:07.509Z,88.85
2017-11-10T17:26:35.127Z,88.46
2017-11-10T17:29:02.661Z,89.33
2017-11-10T17:31:30.166Z,88.29
2017-11-10T17:33:57.658Z,88.84
2017-11-10T17:36:25.162Z,88.66
2017-11-10T17:38:52.712Z,88.97
2017-11-10T17:41:20.207Z,88.34
2017-11-10T17:43:47.731Z,88.25
2017-11-10T17:46:15.250Z,88.24
2017-11-10T17:48:42.755Z,87.98
2017-11-10T17:51:10.285Z,88.16
2017-11-10T17:53:37.774Z,87.98
2017-11-10T17:56:05.267Z,88.33
2017-11-10T17:58:32.799Z,88.69
2017-11-10T18:01:00.418Z,88.34
2017-11-10T18:03:27.949Z,87.86
2017-11-10T18:05:55.552Z,87.58
2017-11-10T18:08:23.038Z,87.40
2017-11-10T18:10:50.536Z,87.60
2017-11-10T18:13:18.073Z,87.31
2017-11-10T18:15:45.570Z,87.97
2017-11-10T18:18:13.064Z,88.39
2017-11-10T18:20:40.576Z,88.52
2017-11-10T18:23:08.278Z,88.44
2017-11-10T18:25:35.815Z,88.33
2017-11-10T18:28:03.294Z,88.94
2017-11-10T18:30:30.794Z,88.96
2017-11-10T18:32:58.315Z,88.21
2017-11-10T18:35:25.813Z,88.03
2017-11-10T18:37:53.328Z,88.59
2017-11-10T18:40:20.938Z,88.55
2017-11-10T18:42:48.484Z,89.13
2017-11-10T18:45:16.027Z,88.74
2017-11-10T18:47:43.534Z,88.37
2017-11-10T18:50:11.064Z,87.90
2017-11-10T18:52:38.566Z,88.53
2017-11-10T18:55:06.088Z,88.30
2017-11-10T18:57:36.987Z,88.87
2017-11-10T19:00:04.574Z,88.80
2017-11-10T19:02:32.146Z,88.82
2017-11-10T19:04:59.649Z,89.39
2017-11-10T19:07:27.193Z,89.37
2017-11-10T19:09:54.681Z,89.77
2017-11-10T19:12:22.191Z,89.94
2017-11-10T19:14:49.815Z,89.09
2017-11-10T19:17:17.327Z,89.08
2017-11-10T19:19:44.843Z,89.66
2017-11-10T19:22:12.373Z,89.30
2017-11-10T19:24:39.863Z,89.25
2017-11-10T19:27:07.446Z,88.75
2017-11-10T19:29:35.011Z,89.11
2017-11-10T19:32:02.548Z,88.82
2017-11-10T19:34:30.132Z,88.39
2017-11-10T19:36:57.655Z,89.18
2017-11-10T19:39:25.153Z,88.95
2017-11-10T19:41:52.676Z,89.45
2017-11-10T19:44:20.204Z,89.29
2017-11-10T19:46:47.718Z,89.69
2017-11-10T19:49:15.318Z,89.03
2017-11-10T19:51:42.834Z,89.66
2017-11-10T19:54:10.345Z,89.59
2017-11-10T19:56:37.874Z,89.19
2017-11-10T19:59:05.414Z,89.17
2017-11-10T20:01:32.935Z,89.33
2017-11-10T20:04:00.470Z,90.10
2017-11-10T20:06:27.980Z,89.62
2017-11-10T20:08:55.511Z,89.29
2017-11-10T20:11:23.034Z,89.10
2017-11-10T20:13:50.544Z,89.10
2017-11-10T20:16:18.077Z,88.86
2017-11-10T20:18:45.616Z,89.00
2017-11-10T20:21:13.127Z,89.64
2017-11-10T20:23:40.655Z,90.16
2017-11-10T20:26:08.208Z,90.69
2017-11-10T20:28:35.712Z,91.06
2017-11-10T20:31:03.228Z,91.23
2017-11-10T20:33:30.799Z,91.35
2017-11-10T20:35:58.458Z,92.12
2017-11-10T20:38:25.983Z,91.43
2017-11-10T20:40:53.608Z,92.33
2017-11-10T20:43:21.154Z,92.93
2017-11-10T20:45:48.672Z,92.99
2017-11-10T20:48:16.177Z,93.80
2017-11-10T20:50:43.846Z,93.53
2017-11-10T20:53:11.368Z,93.32
2017-11-10T20:55:38.889Z,93.33
2017-11-10T20:58:06.524Z,94.50
2017-11-10T21:00:34.052Z,93.95
2017-11-10T21:03:01.584Z,93.94
2017-11-10T21:05:29.114Z,95.34
2017-11-10T21:07:56.615Z,94.83
2017-11-10T21:10:24.156Z,95.03
2017-11-10T21:12:51.677Z,94.04
2017-11-10T21:15:19.240Z,94.21
2017-11-10T21:17:46.761Z,94.16
2017-11-10T21:20:14.283Z,94.11
2017-11-10T21:22:41.825Z,94.24
2017-11-10T21:25:09.377Z,94.38
2017-11-10T21:27:36.887Z,94.43
2017-11-10T21:30:04.533Z,94.96
2017-11-10T21:32:32.057Z,94.73
2017-11-10T21:34:59.550Z,95.35
2017-11-10T21:37:27.090Z,95.28
2017-11-10T21:39:54.606Z,95.08
2017-11-10T21:42:22.121Z,95.01
2017-11-10T21:44:49.653Z,94.55
2017-11-10T21:47:17.197Z,94.01
2017-11-10T21:49:44.707Z,94.62
2017-11-10T21:52:12.251Z,94.32
2017-11-10T21:54:39.769Z,94.82
2017-11-10T21:57:07.812Z,95.23
2017-11-10T21:59:35.324Z,94.51
2017-11-10T22:02:02.871Z,94.15
2017-11-10T22:04:30.383Z,94.80
2017-11-10T22:06:57.911Z,94.74
2017-11-10T22:09:25.463Z,94.19
2017-11-10T22:11:52.995Z,95.21
2017-11-10T22:14:20.480Z,94.68
2017-11-10T22:16:48.005Z,94.35
2017-11-10T22:19:15.501Z,94.50
2017-11-10T22:21:43.076Z,94.22
2017-11-10T22:24:10.586Z,95.11
2017-11-10T22:26:38.095Z,95.53
2017-11-10T22:29:05.631Z,95.66
2017-11-10T22:31:33.177Z,95.92
2017-11-10T22:34:00.671Z,96.13
2017-11-10T22:36:28.265Z,95.70
2017-11-10T22:38:55.913Z,96.21
2017-11-10T22:41:23.409Z,94.81
2017-11-10T22:43:50.927Z,94.75
2017-11-10T22:46:18.450Z,95.06
2017-11-10T22:48:45.954Z,95.50
2017-11-10T22:51:13.475Z,94.98
2017-11-10T22:53:40.985Z,94.82
2017-11-10T22:56:08.490Z,95.15
2017-11-10T22:58:36.002Z,95.53
2017-11-10T23:01:03.511Z,95.29
2017-11-10T23:03:31.048Z,94.63
2017-11-10T23:05:58.535Z,95.20
2017-11-10T23:08:26.065Z,93.79
2017-11-10T23:10:53.677Z,93.50
2017-11-10T23:13:25.024Z,93.26
2017-11-10T23:15:54.955Z,92.36
2017-11-10T23:18:22.485Z,91.73
2017-11-10T23:20:49.987Z,91.92
2017-11-10T23:23:17.584Z,92.74
2017-11-10T23:25:45.236Z,93.32
2017-11-10T23:28:12.725Z,91.95
2017-11-10T23:30:40.246Z,92.80
2017-11-10T23:33:07.773Z,92.33
2017-11-10T23:35:35.259Z,93.45
2017-11-10T23:38:02.786Z,93.11
2017-11-10T23:40:30.311Z,93.41
2017-11-10T23:42:57.807Z,93.17
2017-11-10T23:45:25.362Z,93.51
2017-11-10T23:47:52.874Z,93.04
2017-11-10T23:50:20.382Z,93.31
2017-11-10T23:52:48.005Z,93.68
2017-11-10T23:55:15.499Z,94.35
2017-11-10T23:57:43.027Z,94.54
